^^
Grace C. Lehan Memorial Weather Station Historical Data
Daily Summary for January 25, 2022 Units:  Both    English   Metric
Daily Weekly Monthly Yearly
  High: Low: Average:
Temperature: 43.7 °F /  6.5 °C 28.8 °F /  -1.8 °C 34.3 °F /  1.3 °C
Dew Point: 32.9 °F /  0.5 °C 17.7 °F /  -7.9 °C 28.2 °F /  -2.1 °C
Humidity: 94.9% 54% 80%
Wind Speed: 9.2mph /  14.8km/h - 1.1mph /  1.8km/h
Wind Gust: 18mph /  29km/h - -
Wind- - WNW
Pressure: 30.05 in /  1017.5 hPa 29.80 in /  1009 hPa -
Precipitation: 0.03 in /  0.76 mm    
 
 
Tabular Data for January 25, 2022
Time Temperature Dew Point Pressure Wind Wind Speed Wind Gust Humidity Rainfall Rate (Hourly) solar
00:04 28.8 °F /  -1.8 °C 26.2 °F /  -3.2 °C 29.85in /  1010.7hPa Calm     90% 0.00in /  0mm 0 W/m2
00:09 28.8 °F /  -1.8 °C 26.2 °F /  -3.2 °C 29.85in /  1010.7hPa Calm     90% 0.00in /  0mm 0 W/m2
00:14 28.8 °F /  -1.8 °C 26.2 °F /  -3.2 °C 29.85in /  1010.7hPa Calm     90% 0.00in /  0mm 0 W/m2
00:19 28.8 °F /  -1.8 °C 26.2 °F /  -3.2 °C 29.85in /  1010.7hPa Calm     90% 0.00in /  0mm 0 W/m2
00:24 28.8 °F /  -1.8 °C 26.2 °F /  -3.2 °C 29.85in /  1010.7hPa Calm     90% 0.00in /  0mm 0 W/m2
00:29 28.8 °F /  -1.8 °C 26.4 °F /  -3.1 °C 29.84in /  1010.4hPa Calm     90.8% 0.00in /  0mm 0 W/m2
00:34 28.9 °F /  -1.7 °C 26.6 °F /  -3 °C 29.84in /  1010.4hPa Calm     91% 0.00in /  0mm 0 W/m2
00:39 28.9 °F /  -1.7 °C 26.6 °F /  -3 °C 29.84in /  1010.4hPa Calm     91% 0.00in /  0mm 0 W/m2
00:44 28.9 °F /  -1.7 °C 26.6 °F /  -3 °C 29.84in /  1010.4hPa Calm     91% 0.00in /  0mm 0 W/m2
00:49 29 °F /  -1.7 °C 26.7 °F /  -2.9 °C 29.84in /  1010.4hPa Calm     91% 0.00in /  0mm 0 W/m2
00:54 29 °F /  -1.7 °C 26.7 °F /  -2.9 °C 29.84in /  1010.4hPa Calm     91% 0.00in /  0mm 0 W/m2
00:59 29 °F /  -1.7 °C 26.7 °F /  -2.9 °C 29.83in /  1010hPa Calm     91% 0.00in /  0mm 0 W/m2
01:04 29 °F /  -1.7 °C 26.7 °F /  -2.9 °C 29.83in /  1010hPa Calm     91% 0.00in /  0mm 0 W/m2
01:09 29.1 °F /  -1.6 °C 26.8 °F /  -2.9 °C 29.83in /  1010hPa Calm     91% 0.00in /  0mm 0 W/m2
01:14 29.1 °F /  -1.6 °C 26.9 °F /  -2.8 °C 29.83in /  1010hPa Calm     91% 0.00in /  0mm 0 W/m2
01:19 29.2 °F /  -1.6 °C 26.9 °F /  -2.8 °C 29.83in /  1010hPa Calm     91% 0.00in /  0mm 0 W/m2
01:24 29.2 °F /  -1.6 °C 26.9 °F /  -2.8 °C 29.83in /  1010hPa Calm     91% 0.00in /  0mm 0 W/m2
01:29 29.3 °F /  -1.5 °C 27 °F /  -2.8 °C 29.83in /  1010hPa Calm     91% 0.00in /  0mm 0 W/m2
01:34 29.3 °F /  -1.5 °C 27 °F /  -2.8 °C 29.83in /  1010hPa Calm     91% 0.00in /  0mm 0 W/m2
01:39 29.3 °F /  -1.5 °C 27.2 °F /  -2.7 °C 29.83in /  1010hPa Calm     91.6% 0.00in /  0mm 0 W/m2
01:44 29.4 °F /  -1.4 °C 27.1 °F /  -2.7 °C 29.83in /  1010hPa Calm     91.1% 0.00in /  0mm 0 W/m2
01:49 29.4 °F /  -1.4 °C 27.1 °F /  -2.7 °C 29.83in /  1010hPa Calm     91% 0.00in /  0mm 0 W/m2
01:54 29.4 °F /  -1.4 °C 27.2 °F /  -2.7 °C 29.83in /  1010hPa Calm     91.4% 0.00in /  0mm 0 W/m2
01:59 29.5 °F /  -1.4 °C 27.5 °F /  -2.5 °C 29.83in /  1010hPa Calm     92% 0.00in /  0mm 0 W/m2
02:04 29.6 °F /  -1.3 °C 27.5 °F /  -2.5 °C 29.83in /  1010hPa Calm     92% 0.00in /  0mm 0 W/m2
02:09 29.6 °F /  -1.3 °C 27.6 °F /  -2.4 °C 29.82in /  1009.7hPa Calm     92% 0.00in /  0mm 0 W/m2
02:14 29.7 °F /  -1.3 °C 27.7 °F /  -2.4 °C 29.83in /  1010hPa Calm     92% 0.00in /  0mm 0 W/m2
02:19 29.7 °F /  -1.3 °C 27.7 °F /  -2.4 °C 29.83in /  1010hPa Calm     92% 0.00in /  0mm 0 W/m2
02:23 29.8 °F /  -1.2 °C 27.8 °F /  -2.3 °C 29.83in /  1010hPa Calm     92% 0.00in /  0mm 0 W/m2
02:29 29.8 °F /  -1.2 °C 27.8 °F /  -2.3 °C 29.83in /  1010hPa Calm     92% 0.00in /  0mm 0 W/m2
02:34 29.8 °F /  -1.2 °C 27.8 °F /  -2.3 °C 29.83in /  1010hPa Calm     92% 0.00in /  0mm 0 W/m2
02:39 29.9 °F /  -1.2 °C 27.8 °F /  -2.3 °C 29.83in /  1010hPa Calm     92% 0.00in /  0mm 0 W/m2
02:44 29.9 °F /  -1.2 °C 27.9 °F /  -2.3 °C 29.82in /  1009.7hPa Calm     92% 0.00in /  0mm 0 W/m2
02:49 29.9 °F /  -1.2 °C 27.9 °F /  -2.3 °C 29.82in /  1009.7hPa Calm     92% 0.00in /  0mm 0 W/m2
02:54 30 °F /  -1.1 °C 28 °F /  -2.2 °C 29.82in /  1009.7hPa Calm     92% 0.00in /  0mm 0 W/m2
02:59 30 °F /  -1.1 °C 28 °F /  -2.2 °C 29.82in /  1009.7hPa Calm     92% 0.00in /  0mm 0 W/m2
03:04 30 °F /  -1.1 °C 28 °F /  -2.2 °C 29.81in /  1009.4hPa Calm     92% 0.00in /  0mm 0 W/m2
03:09 30 °F /  -1.1 °C 28 °F /  -2.2 °C 29.81in /  1009.4hPa Calm     92% 0.00in /  0mm 0 W/m2
03:14 30 °F /  -1.1 °C 28 °F /  -2.2 °C 29.81in /  1009.4hPa Calm     92% 0.00in /  0mm 0 W/m2
03:19 30.1 °F /  -1.1 °C 28 °F /  -2.2 °C 29.81in /  1009.4hPa Calm     92% 0.00in /  0mm 0 W/m2
03:24 30.1 °F /  -1.1 °C 28.1 °F /  -2.2 °C 29.81in /  1009.4hPa Calm     92% 0.00in /  0mm 0 W/m2
03:29 30.1 °F /  -1.1 °C 28.1 °F /  -2.2 °C 29.81in /  1009.4hPa Calm     92% 0.00in /  0mm 0 W/m2
03:34 30.1 °F /  -1.1 °C 28.1 °F /  -2.2 °C 29.81in /  1009.4hPa Calm     92% 0.00in /  0mm 0 W/m2
03:39 30.1 °F /  -1.1 °C 28.1 °F /  -2.2 °C 29.81in /  1009.4hPa Calm     92% 0.00in /  0mm 0 W/m2
03:44 30.1 °F /  -1.1 °C 28.1 °F /  -2.2 °C 29.81in /  1009.4hPa Calm     92% 0.00in /  0mm 0 W/m2
03:49 30.1 °F /  -1.1 °C 28.1 °F /  -2.2 °C 29.81in /  1009.4hPa Calm     92% 0.00in /  0mm 0 W/m2
03:54 30.1 °F /  -1.1 °C 28.1 °F /  -2.2 °C 29.81in /  1009.4hPa Calm     92% 0.00in /  0mm 0 W/m2
03:59 30.2 °F /  -1 °C 28.1 °F /  -2.2 °C 29.81in /  1009.4hPa Calm     92% 0.00in /  0mm 0 W/m2
04:00 30.2 °F /  -1 °C 28.2 °F /  -2.1 °C 29.80in /  1009hPa Calm     92% 0.00in /  0mm 0 W/m2
04:09 30.2 °F /  -1 °C 28.2 °F /  -2.1 °C 29.81in /  1009.4hPa Calm     92% 0.00in /  0mm 0 W/m2
04:14 30.2 °F /  -1 °C 28.2 °F /  -2.1 °C 29.81in /  1009.4hPa Calm     92% 0.00in /  0mm 0 W/m2
04:19 30.2 °F /  -1 °C 28.1 °F /  -2.2 °C 29.81in /  1009.4hPa Calm     92% 0.00in /  0mm 0 W/m2
04:24 30.1 °F /  -1.1 °C 28.1 °F /  -2.2 °C 29.81in /  1009.4hPa Calm     92% 0.00in /  0mm 0 W/m2
04:29 30.1 °F /  -1.1 °C 28.1 °F /  -2.2 °C 29.81in /  1009.4hPa Calm     92% 0.00in /  0mm 0 W/m2
04:34 30.1 °F /  -1.1 °C 28.1 °F /  -2.2 °C 29.81in /  1009.4hPa Calm     92% 0.00in /  0mm 0 W/m2
04:39 30.1 °F /  -1.1 °C 28.1 °F /  -2.2 °C 29.81in /  1009.4hPa Calm     92% 0.00in /  0mm 0 W/m2
04:44 30.1 °F /  -1.1 °C 28.2 °F /  -2.1 °C 29.81in /  1009.4hPa Calm     92.5% 0.00in /  0mm 0 W/m2
04:49 30.1 °F /  -1.1 °C 28.4 °F /  -2 °C 29.81in /  1009.4hPa Calm     93% 0.00in /  0mm 0 W/m2
04:54 30.2 °F /  -1 °C 28.4 °F /  -2 °C 29.81in /  1009.4hPa Calm     93% 0.00in /  0mm 0 W/m2
04:59 30.2 °F /  -1 °C 28.4 °F /  -2 °C 29.81in /  1009.4hPa Calm     93% 0.00in /  0mm 0 W/m2
05:04 30.3 °F /  -0.9 °C 28.5 °F /  -1.9 °C 29.81in /  1009.4hPa Calm     93% 0.00in /  0mm 0 W/m2
05:09 30.3 °F /  -0.9 °C 28.5 °F /  -1.9 °C 29.81in /  1009.4hPa Calm     93% 0.00in /  0mm 0 W/m2
05:14 30.4 °F /  -0.9 °C 28.6 °F /  -1.9 °C 29.82in /  1009.7hPa Calm     93% 0.00in /  0mm 0 W/m2
05:19 30.4 °F /  -0.9 °C 28.6 °F /  -1.9 °C 29.82in /  1009.7hPa Calm     93% 0.00in /  0mm 0 W/m2
05:24 30.5 °F /  -0.8 °C 28.7 °F /  -1.8 °C 29.82in /  1009.7hPa Calm     93% 0.00in /  0mm 0 W/m2
05:29 30.5 °F /  -0.8 °C 28.7 °F /  -1.8 °C 29.82in /  1009.7hPa Calm     93% 0.00in /  0mm 0 W/m2
05:34 30.5 °F /  -0.8 °C 28.7 °F /  -1.8 °C 29.82in /  1009.7hPa Calm     93% 0.00in /  0mm 0 W/m2
05:39 30.5 °F /  -0.8 °C 28.7 °F /  -1.8 °C 29.82in /  1009.7hPa Calm     93% 0.00in /  0mm 0 W/m2
05:44 30.5 °F /  -0.8 °C 28.7 °F /  -1.8 °C 29.82in /  1009.7hPa Calm     93% 0.00in /  0mm 0 W/m2
05:49 30.5 °F /  -0.8 °C 28.7 °F /  -1.8 °C 29.82in /  1009.7hPa Calm     93% 0.00in /  0mm 0 W/m2
05:54 30.6 °F /  -0.8 °C 28.8 °F /  -1.8 °C 29.82in /  1009.7hPa Calm     93% 0.00in /  0mm 0 W/m2
05:59 30.6 °F /  -0.8 °C 28.8 °F /  -1.8 °C 29.82in /  1009.7hPa Calm     93% 0.00in /  0mm 0 W/m2
06:04 30.6 °F /  -0.8 °C 28.8 °F /  -1.8 °C 29.82in /  1009.7hPa Calm     93% 0.00in /  0mm 0 W/m2
06:09 30.6 °F /  -0.8 °C 28.8 °F /  -1.8 °C 29.82in /  1009.7hPa Calm     93% 0.00in /  0mm 0 W/m2
06:14 30.6 °F /  -0.8 °C 28.8 °F /  -1.8 °C 29.82in /  1009.7hPa Calm     93% 0.00in /  0mm 0 W/m2
06:19 30.6 °F /  -0.8 °C 28.8 °F /  -1.8 °C 29.82in /  1009.7hPa Calm     93% 0.00in /  0mm 0 W/m2
06:24 30.6 °F /  -0.8 °C 28.8 °F /  -1.8 °C 29.83in /  1010hPa Calm     93% 0.00in /  0mm 0 W/m2
06:29 30.6 °F /  -0.8 °C 28.8 °F /  -1.8 °C 29.83in /  1010hPa Calm     93% 0.00in /  0mm 0 W/m2
06:34 30.5 °F /  -0.8 °C 28.7 °F /  -1.8 °C 29.83in /  1010hPa Calm     93% 0.00in /  0mm 0 W/m2
06:39 30.5 °F /  -0.8 °C 28.7 °F /  -1.8 °C 29.83in /  1010hPa Calm     93% 0.00in /  0mm 0 W/m2
06:44 30.4 °F /  -0.9 °C 28.6 °F /  -1.9 °C 29.83in /  1010hPa Calm     93% 0.00in /  0mm 0 W/m2
06:49 30.4 °F /  -0.9 °C 28.6 °F /  -1.9 °C 29.83in /  1010hPa Calm     93% 0.00in /  0mm 0 W/m2
06:54 30.4 °F /  -0.9 °C 28.6 °F /  -1.9 °C 29.83in /  1010hPa Calm     93% 0.00in /  0mm 0 W/m2
06:59 30.4 °F /  -0.9 °C 28.6 °F /  -1.9 °C 29.83in /  1010hPa Calm     93% 0.00in /  0mm 0 W/m2
07:04 30.4 °F /  -0.9 °C 28.6 °F /  -1.9 °C 29.83in /  1010hPa Calm     93% 0.00in /  0mm 0 W/m2
07:09 30.5 °F /  -0.8 °C 28.7 °F /  -1.8 °C 29.83in /  1010hPa Calm     93% 0.00in /  0mm 0 W/m2
07:14 30.5 °F /  -0.8 °C 28.7 °F /  -1.8 °C 29.83in /  1010hPa Calm     93% 0.00in /  0mm 0 W/m2
07:19 30.4 °F /  -0.9 °C 28.7 °F /  -1.8 °C 29.83in /  1010hPa Calm     93% 0.00in /  0mm 0 W/m2
07:24 30.4 °F /  -0.9 °C 28.6 °F /  -1.9 °C 29.83in /  1010hPa Calm     93% 0.00in /  0mm 0 W/m2
07:29 30.4 °F /  -0.9 °C 28.6 °F /  -1.9 °C 29.84in /  1010.4hPa Calm     93% 0.00in /  0mm 5 W/m2
07:34 30.3 °F /  -0.9 °C 28.5 °F /  -1.9 °C 29.84in /  1010.4hPa Calm     93% 0.00in /  0mm 5 W/m2
07:39 30.3 °F /  -0.9 °C 28.5 °F /  -1.9 °C 29.84in /  1010.4hPa Calm     93% 0.00in /  0mm 5 W/m2
07:44 30.4 °F /  -0.9 °C 28.6 °F /  -1.9 °C 29.84in /  1010.4hPa Calm     93% 0.00in /  0mm 7 W/m2
07:49 30.4 °F /  -0.9 °C 28.6 °F /  -1.9 °C 29.85in /  1010.7hPa Calm     93% 0.00in /  0mm 7 W/m2
07:54 30.4 °F /  -0.9 °C 28.7 °F /  -1.8 °C 29.85in /  1010.7hPa Calm     93% 0.00in /  0mm 11 W/m2
07:59 30.5 °F /  -0.8 °C 28.7 °F /  -1.8 °C 29.85in /  1010.7hPa Calm     93% 0.00in /  0mm 14 W/m2
08:00 30.5 °F /  -0.8 °C 28.7 °F /  -1.8 °C 29.85in /  1010.7hPa Calm     93% 0.00in /  0mm 14 W/m2
08:09 30.6 °F /  -0.8 °C 28.8 °F /  -1.8 °C 29.85in /  1010.7hPa Calm     93% 0.00in /  0mm 16 W/m2
08:14 30.7 °F /  -0.7 °C 28.9 °F /  -1.7 °C 29.85in /  1010.7hPa Calm     93% 0.00in /  0mm 16 W/m2
08:19 30.8 °F /  -0.7 °C 29 °F /  -1.7 °C 29.86in /  1011.1hPa Calm     93% 0.00in /  0mm 19 W/m2
08:24 31 °F /  -0.6 °C 29.2 °F /  -1.6 °C 29.86in /  1011.1hPa Calm     93% 0.00in /  0mm 23 W/m2
08:29 31.1 °F /  -0.5 °C 29.4 °F /  -1.4 °C 29.86in /  1011.1hPa Calm     93.1% 0.00in /  0mm 40 W/m2
08:34 31.3 °F /  -0.4 °C 29.8 °F /  -1.2 °C 29.87in /  1011.4hPa Calm     94% 0.00in /  0mm 47 W/m2
08:39 31.5 °F /  -0.3 °C 30 °F /  -1.1 °C 29.87in /  1011.4hPa Calm     94% 0.00in /  0mm 35 W/m2
08:44 31.8 °F /  -0.1 °C 30.3 °F /  -0.9 °C 29.87in /  1011.4hPa Calm     94% 0.00in /  0mm 33 W/m2
08:49 32 °F /  0 °C 30.7 °F /  -0.7 °C 29.87in /  1011.4hPa Calm     94.9% 0.00in /  0mm 44 W/m2
08:54 32.3 °F /  0.2 °C 30.8 °F /  -0.7 °C 29.87in /  1011.4hPa Calm     94% 0.00in /  0mm 46 W/m2
08:59 32.5 °F /  0.3 °C 31 °F /  -0.6 °C 29.87in /  1011.4hPa Calm     94% 0.00in /  0mm 46 W/m2
09:04 32.8 °F /  0.4 °C 31.3 °F /  -0.4 °C 29.87in /  1011.4hPa Calm     94% 0.00in /  0mm 46 W/m2
09:09 33.1 °F /  0.6 °C 31.6 °F /  -0.2 °C 29.88in /  1011.7hPa Calm     94% 0.00in /  0mm 70 W/m2
09:14 33.5 °F /  0.8 °C 32 °F /  0 °C 29.88in /  1011.7hPa Calm     94% 0.00in /  0mm 100 W/m2
09:19 34 °F /  1.1 °C 32.4 °F /  0.2 °C 29.88in /  1011.7hPa Calm     94% 0.00in /  0mm 77 W/m2
09:24 34.3 °F /  1.3 °C 32.7 °F /  0.4 °C 29.88in /  1011.7hPa Calm     93.8% 0.00in /  0mm 35 W/m2
09:29 34.5 °F /  1.4 °C 32.7 °F /  0.4 °C 29.89in /  1012.1hPa Calm     93% 0.00in /  0mm 51 W/m2
09:34 34.7 °F /  1.5 °C 32.8 °F /  0.4 °C 29.89in /  1012.1hPa Calm     92.6% 0.00in /  0mm 51 W/m2
09:39 34.7 °F /  1.5 °C 32.6 °F /  0.3 °C 29.89in /  1012.1hPa Calm     92% 0.00in /  0mm 51 W/m2
09:44 34.8 °F /  1.6 °C 32.5 °F /  0.3 °C 29.90in /  1012.4hPa Calm     91.1% 0.00in /  0mm 54 W/m2
09:49 34.8 °F /  1.6 °C 32.5 °F /  0.3 °C 29.90in /  1012.4hPa Calm     91% 0.00in /  0mm 54 W/m2
09:54 34.8 °F /  1.6 °C 32.3 °F /  0.2 °C 29.89in /  1012.1hPa Calm     90.3% 0.00in /  0mm 74 W/m2
09:59 34.8 °F /  1.6 °C 32.2 °F /  0.1 °C 29.89in /  1012.1hPa Calm     90% 0.00in /  0mm 104 W/m2
10:04 34.9 °F /  1.6 °C 32.3 °F /  0.2 °C 29.90in /  1012.4hPa Calm     90% 0.00in /  0mm 107 W/m2
10:09 35.1 °F /  1.7 °C 32.5 °F /  0.3 °C 29.90in /  1012.4hPa Calm     90% 0.00in /  0mm 116 W/m2
10:14 35.3 °F /  1.8 °C 32.7 °F /  0.4 °C 29.90in /  1012.4hPa Calm   1mph /  1.6km/h 90% 0.00in /  0mm 128 W/m2
10:19 35.5 °F /  1.9 °C 32.6 °F /  0.3 °C 29.90in /  1012.4hPa South 0.4mph /  0.6km/h 3mph /  4.8km/h 89.1% 0.01in /  0.25mm 141 W/m2
10:24 35.8 °F /  2.1 °C 32.7 °F /  0.4 °C 29.90in /  1012.4hPa South 0.6mph /  1km/h 5mph /  8km/h 88.3% 0.01in /  0.25mm 141 W/m2
10:29 36 °F /  2.2 °C 32.6 °F /  0.3 °C 29.90in /  1012.4hPa WSW 0.6mph /  1km/h 7mph /  11.3km/h 87.4% 0.01in /  0.25mm 134 W/m2
10:34 36.2 °F /  2.3 °C 32.5 °F /  0.3 °C 29.91in /  1012.8hPa WSW 0.5mph /  0.8km/h 7mph /  11.3km/h 86% 0.01in /  0.25mm 137 W/m2
10:39 36.5 °F /  2.5 °C 32.4 °F /  0.2 °C 29.91in /  1012.8hPa WSW 0.8mph /  1.3km/h 5mph /  8km/h 85.1% 0.01in /  0.25mm 174 W/m2
10:44 36.7 °F /  2.6 °C 32.3 °F /  0.2 °C 29.91in /  1012.8hPa WSW 0.5mph /  0.8km/h 5mph /  8km/h 84% 0.02in /  0.51mm 155 W/m2
10:49 36.9 °F /  2.7 °C 32.3 °F /  0.2 °C 29.91in /  1012.8hPa WSW 1.1mph /  1.8km/h 5mph /  8km/h 83.3% 0.02in /  0.51mm 153 W/m2
10:54 37.1 °F /  2.8 °C 32.2 °F /  0.1 °C 29.92in /  1013.1hPa WSW 0.7mph /  1.1km/h 5mph /  8km/h 82.3% 0.02in /  0.51mm 141 W/m2
10:59 37.3 °F /  2.9 °C 32.3 °F /  0.2 °C 29.91in /  1012.8hPa WSW 0.1mph /  0.2km/h 5mph /  8km/h 82% 0.02in /  0.51mm 130 W/m2
11:04 37.4 °F /  3 °C 32.2 °F /  0.1 °C 29.91in /  1012.8hPa SW 0.7mph /  1.1km/h 7mph /  11.3km/h 81.2% 0.02in /  0.51mm 162 W/m2
11:09 37.5 °F /  3.1 °C 32.2 °F /  0.1 °C 29.91in /  1012.8hPa Calm   7mph /  11.3km/h 81% 0.03in /  0.76mm 163 W/m2
11:14 37.7 °F /  3.2 °C 32.1 °F /  0.1 °C 29.91in /  1012.8hPa WSW 1mph /  1.6km/h 7mph /  11.3km/h 80.2% 0.03in /  0.76mm 190 W/m2
11:19 37.8 °F /  3.2 °C 32.2 °F /  0.1 °C 29.91in /  1012.8hPa WSW 0.3mph /  0.5km/h 7mph /  11.3km/h 80% 0.03in /  0.76mm 202 W/m2
11:24 38.1 °F /  3.4 °C 32.6 °F /  0.3 °C 29.90in /  1012.4hPa WSW 1.2mph /  1.9km/h 7mph /  11.3km/h 80.5% 0.03in /  0.76mm 197 W/m2
11:29 38.3 °F /  3.5 °C 32.7 °F /  0.4 °C 29.90in /  1012.4hPa West 1.4mph /  2.3km/h 7mph /  11.3km/h 80% 0.03in /  0.76mm 214 W/m2
11:34 38.5 °F /  3.6 °C 32.5 °F /  0.3 °C 29.90in /  1012.4hPa WNW 1.2mph /  1.9km/h 7mph /  11.3km/h 78.8% 0.03in /  0.76mm 197 W/m2
11:39 38.7 °F /  3.7 °C 32.4 °F /  0.2 °C 29.90in /  1012.4hPa WSW 0.7mph /  1.1km/h 5mph /  8km/h 78% 0.02in /  0.51mm 223 W/m2
11:44 38.9 °F /  3.8 °C 32.6 °F /  0.3 °C 29.90in /  1012.4hPa WSW 0.6mph /  1km/h 5mph /  8km/h 78% 0.02in /  0.51mm 214 W/m2
11:49 39.1 °F /  3.9 °C 32.7 °F /  0.4 °C 29.89in /  1012.1hPa WSW 0.6mph /  1km/h 5mph /  8km/h 77.4% 0.02in /  0.51mm 271 W/m2
11:54 39.4 °F /  4.1 °C 32.8 °F /  0.4 °C 29.89in /  1012.1hPa West 1.1mph /  1.8km/h 5mph /  8km/h 77% 0.02in /  0.51mm 195 W/m2
11:59 39.7 °F /  4.3 °C 32.6 °F /  0.3 °C 29.89in /  1012.1hPa West 3mph /  4.8km/h 7mph /  11.3km/h 75.6% 0.02in /  0.51mm 204 W/m2
12:00 39.7 °F /  4.3 °C 32.4 °F /  0.2 °C 29.89in /  1012.1hPa WNW 3mph /  4.8km/h 7mph /  11.3km/h 75% 0.02in /  0.51mm 156 W/m2
12:09 40 °F /  4.4 °C 32.4 °F /  0.2 °C 29.89in /  1012.1hPa WNW 0.7mph /  1.1km/h 3mph /  4.8km/h 74.1% 0.02in /  0.51mm 192 W/m2
12:14 40.4 °F /  4.7 °C 32.7 °F /  0.4 °C 29.89in /  1012.1hPa WNW 2mph /  3.2km/h 7mph /  11.3km/h 74% 0.02in /  0.51mm 388 W/m2
12:19 40.7 °F /  4.8 °C 32.9 °F /  0.5 °C 29.89in /  1012.1hPa WNW 1.7mph /  2.7km/h 7mph /  11.3km/h 73.5% 0.02in /  0.51mm 151 W/m2
12:24 41.1 °F /  5.1 °C 32.9 °F /  0.5 °C 29.89in /  1012.1hPa West 2.3mph /  3.7km/h 7mph /  11.3km/h 72.4% 0.02in /  0.51mm 179 W/m2
12:29 41.3 °F /  5.2 °C 32.5 °F /  0.3 °C 29.89in /  1012.1hPa WSW 1.2mph /  1.9km/h 7mph /  11.3km/h 70.6% 0.02in /  0.51mm 186 W/m2
12:34 41.5 °F /  5.3 °C 32.6 °F /  0.3 °C 29.89in /  1012.1hPa WSW 0.2mph /  0.3km/h 7mph /  11.3km/h 70.4% 0.02in /  0.51mm 128 W/m2
12:39 41.7 °F /  5.4 °C 32.7 °F /  0.4 °C 29.88in /  1011.7hPa WSW 1mph /  1.6km/h 5mph /  8km/h 70.1% 0.00in /  0mm 132 W/m2
12:44 41.9 °F /  5.5 °C 32.6 °F /  0.3 °C 29.88in /  1011.7hPa WSW 0.7mph /  1.1km/h 5mph /  8km/h 69.3% 0.00in /  0mm 225 W/m2
12:49 42 °F /  5.6 °C 32.6 °F /  0.3 °C 29.89in /  1012.1hPa WSW 0.4mph /  0.6km/h 5mph /  8km/h 69% 0.00in /  0mm 221 W/m2
12:54 42.2 °F /  5.7 °C 32.5 °F /  0.3 °C 29.89in /  1012.1hPa West 1.7mph /  2.7km/h 5mph /  8km/h 68.2% 0.00in /  0mm 192 W/m2
12:59 42.3 °F /  5.7 °C 32.5 °F /  0.3 °C 29.89in /  1012.1hPa West 1mph /  1.6km/h 5mph /  8km/h 68.2% 0.00in /  0mm 246 W/m2
13:04 42.3 °F /  5.7 °C 32.1 °F /  0.1 °C 29.88in /  1011.7hPa WNW 2.4mph /  3.9km/h 8mph /  12.9km/h 66.9% 0.00in /  0mm 172 W/m2
13:09 42.4 °F /  5.8 °C 31.9 °F /  -0.1 °C 29.88in /  1011.7hPa WNW 2.2mph /  3.5km/h 8mph /  12.9km/h 66.3% 0.00in /  0mm 97 W/m2
13:14 42.5 °F /  5.8 °C 31.9 °F /  -0.1 °C 29.88in /  1011.7hPa WNW 1mph /  1.6km/h 8mph /  12.9km/h 66% 0.00in /  0mm 193 W/m2
13:19 42.5 °F /  5.8 °C 31.4 °F /  -0.3 °C 29.88in /  1011.7hPa WNW 2.6mph /  4.2km/h 8mph /  12.9km/h 64.4% 0.00in /  0mm 171 W/m2
13:24 42.7 °F /  5.9 °C 31.3 °F /  -0.4 °C 29.88in /  1011.7hPa West 2.3mph /  3.7km/h 8mph /  12.9km/h 64% 0.00in /  0mm 169 W/m2
13:29 42.9 °F /  6.1 °C 31 °F /  -0.6 °C 29.88in /  1011.7hPa WNW 2.6mph /  4.2km/h 8mph /  12.9km/h 62.6% 0.00in /  0mm 304 W/m2
13:34 43.1 °F /  6.2 °C 30.2 °F /  -1 °C 29.88in /  1011.7hPa WNW 3mph /  4.8km/h 9mph /  14.5km/h 59.9% 0.00in /  0mm 181 W/m2
13:39 43.4 °F /  6.3 °C 31.1 °F /  -0.5 °C 29.88in /  1011.7hPa NW 1.5mph /  2.4km/h 9mph /  14.5km/h 61.5% 0.00in /  0mm 127 W/m2
13:44 43.5 °F /  6.4 °C 31 °F /  -0.6 °C 29.88in /  1011.7hPa WNW 1.5mph /  2.4km/h 9mph /  14.5km/h 61.1% 0.00in /  0mm 214 W/m2
13:49 43.6 °F /  6.4 °C 30.7 °F /  -0.7 °C 29.88in /  1011.7hPa West 0.1mph /  0.2km/h 9mph /  14.5km/h 60.2% 0.00in /  0mm 251 W/m2
13:54 43.7 °F /  6.5 °C 30.6 °F /  -0.8 °C 29.88in /  1011.7hPa WNW 4.9mph /  7.9km/h 11mph /  17.7km/h 59.8% 0.00in /  0mm 239 W/m2
13:59 43.7 °F /  6.5 °C 29.7 °F /  -1.3 °C 29.88in /  1011.7hPa WNW 4.5mph /  7.2km/h 11mph /  17.7km/h 57.6% 0.00in /  0mm 213 W/m2
14:04 43.6 °F /  6.4 °C 29.2 °F /  -1.6 °C 29.88in /  1011.7hPa WNW 7.2mph /  11.6km/h 13mph /  20.9km/h 56.7% 0.00in /  0mm 274 W/m2
14:09 43.3 °F /  6.3 °C 28.3 °F /  -2.1 °C 29.89in /  1012.1hPa WNW 7.8mph /  12.6km/h 18mph /  29km/h 55.3% 0.00in /  0mm 163 W/m2
14:14 43 °F /  6.1 °C 27.8 °F /  -2.3 °C 29.89in /  1012.1hPa WNW 7.6mph /  12.2km/h 18mph /  29km/h 54.6% 0.00in /  0mm 285 W/m2
14:19 42.8 °F /  6 °C 27.9 °F /  -2.3 °C 29.89in /  1012.1hPa WNW 7mph /  11.3km/h 18mph /  29km/h 55.2% 0.00in /  0mm 251 W/m2
14:24 42.6 °F /  5.9 °C 27.5 °F /  -2.5 °C 29.90in /  1012.4hPa WNW 9.2mph /  14.8km/h 18mph /  29km/h 54.8% 0.00in /  0mm 165 W/m2
14:29 42.4 °F /  5.8 °C 26.9 °F /  -2.8 °C 29.90in /  1012.4hPa West 2.7mph /  4.3km/h 18mph /  29km/h 54% 0.00in /  0mm 165 W/m2
14:34 42.3 °F /  5.7 °C 27.4 °F /  -2.6 °C 29.90in /  1012.4hPa WNW 5.5mph /  8.9km/h 18mph /  29km/h 55.2% 0.00in /  0mm 151 W/m2
14:39 42.2 °F /  5.7 °C 27 °F /  -2.8 °C 29.90in /  1012.4hPa WNW 3.6mph /  5.8km/h 13mph /  20.9km/h 54.5% 0.00in /  0mm 72 W/m2
14:44 42.2 °F /  5.7 °C 27.2 °F /  -2.7 °C 29.90in /  1012.4hPa West 3.1mph /  5km/h 13mph /  20.9km/h 55% 0.00in /  0mm 97 W/m2
14:49 42.1 °F /  5.6 °C 27.1 °F /  -2.7 °C 29.91in /  1012.8hPa WNW 1.3mph /  2.1km/h 13mph /  20.9km/h 55% 0.00in /  0mm 97 W/m2
14:54 42.1 °F /  5.6 °C 27.1 °F /  -2.7 °C 29.91in /  1012.8hPa WNW 4.6mph /  7.4km/h 13mph /  20.9km/h 55% 0.00in /  0mm 193 W/m2
14:59 41.9 °F /  5.5 °C 27 °F /  -2.8 °C 29.91in /  1012.8hPa WNW 5.1mph /  8.2km/h 13mph /  20.9km/h 55% 0.00in /  0mm 144 W/m2
15:04 41.8 °F /  5.4 °C 26.6 °F /  -3 °C 29.91in /  1012.8hPa WNW 6.5mph /  10.5km/h 15mph /  24.1km/h 54.5% 0.00in /  0mm 56 W/m2
15:09 41.6 °F /  5.3 °C 26.6 °F /  -3 °C 29.91in /  1012.8hPa West 4.6mph /  7.4km/h 15mph /  24.1km/h 54.8% 0.00in /  0mm 46 W/m2
15:14 41.4 °F /  5.2 °C 26.8 °F /  -2.9 °C 29.92in /  1013.1hPa WNW 2.5mph /  4km/h 15mph /  24.1km/h 55.6% 0.00in /  0mm 49 W/m2
15:19 41.2 °F /  5.1 °C 27.1 °F /  -2.7 °C 29.92in /  1013.1hPa WNW 4.4mph /  7.1km/h 15mph /  24.1km/h 56.8% 0.00in /  0mm 72 W/m2
15:24 41 °F /  5 °C 27.3 °F /  -2.6 °C 29.92in /  1013.1hPa NW 6mph /  9.7km/h 15mph /  24.1km/h 57.9% 0.00in /  0mm 70 W/m2
15:29 40.7 °F /  4.8 °C 27.2 °F /  -2.7 °C 29.93in /  1013.4hPa WNW 5mph /  8km/h 15mph /  24.1km/h 58.2% 0.00in /  0mm 72 W/m2
15:34 40.5 °F /  4.7 °C 27.5 °F /  -2.5 °C 29.93in /  1013.4hPa WNW 6.4mph /  10.3km/h 15mph /  24.1km/h 59.5% 0.00in /  0mm 70 W/m2
15:39 40.3 °F /  4.6 °C 27.4 °F /  -2.6 °C 29.93in /  1013.4hPa WNW 1.3mph /  2.1km/h 15mph /  24.1km/h 59.7% 0.00in /  0mm 42 W/m2
15:44 40.1 °F /  4.5 °C 27.5 °F /  -2.5 °C 29.93in /  1013.4hPa WNW 2.3mph /  3.7km/h 15mph /  24.1km/h 60.5% 0.00in /  0mm 39 W/m2
15:49 39.8 °F /  4.3 °C 27.1 °F /  -2.7 °C 29.93in /  1013.4hPa WNW 6.3mph /  10.1km/h 17mph /  27.4km/h 60.1% 0.00in /  0mm 47 W/m2
15:54 39.5 °F /  4.2 °C 27 °F /  -2.8 °C 29.94in /  1013.8hPa WNW 2.5mph /  4km/h 17mph /  27.4km/h 60.5% 0.00in /  0mm 49 W/m2
15:59 39.3 °F /  4.1 °C 27.1 °F /  -2.7 °C 29.94in /  1013.8hPa NW 2.8mph /  4.5km/h 17mph /  27.4km/h 61.3% 0.00in /  0mm 42 W/m2
16:00 39.2 °F /  4 °C 26.9 °F /  -2.8 °C 29.94in /  1013.8hPa WNW 4mph /  6.4km/h 17mph /  27.4km/h 61% 0.00in /  0mm 26 W/m2
16:09 38.8 °F /  3.8 °C 25.7 °F /  -3.5 °C 29.94in /  1013.8hPa WNW 5.2mph /  8.4km/h 17mph /  27.4km/h 59% 0.00in /  0mm 23 W/m2
16:14 38.5 °F /  3.6 °C 25.2 °F /  -3.8 °C 29.94in /  1013.8hPa WNW 5.5mph /  8.9km/h 17mph /  27.4km/h 58.5% 0.00in /  0mm 21 W/m2
16:19 38.2 °F /  3.4 °C 25.1 °F /  -3.8 °C 29.95in /  1014.1hPa WNW 3.8mph /  6.1km/h 17mph /  27.4km/h 59% 0.00in /  0mm 18 W/m2
16:24 37.9 °F /  3.3 °C 25.1 °F /  -3.8 °C 29.95in /  1014.1hPa WNW 1.6mph /  2.6km/h 17mph /  27.4km/h 59.5% 0.00in /  0mm 14 W/m2
16:29 37.7 °F /  3.2 °C 25.1 °F /  -3.8 °C 29.95in /  1014.1hPa WNW 0.1mph /  0.2km/h 17mph /  27.4km/h 60% 0.00in /  0mm 14 W/m2
16:34 37.5 °F /  3.1 °C 25 °F /  -3.9 °C 29.95in /  1014.1hPa WNW 2.4mph /  3.9km/h 17mph /  27.4km/h 60.4% 0.00in /  0mm 14 W/m2
16:39 37.3 °F /  2.9 °C 25.1 °F /  -3.8 °C 29.95in /  1014.1hPa WNW 3.5mph /  5.6km/h 11mph /  17.7km/h 61% 0.00in /  0mm 16 W/m2
16:44 37.1 °F /  2.8 °C 25 °F /  -3.9 °C 29.96in /  1014.4hPa WNW 2.2mph /  3.5km/h 11mph /  17.7km/h 61.2% 0.00in /  0mm 16 W/m2
16:49 37.1 °F /  2.8 °C 25.3 °F /  -3.7 °C 29.96in /  1014.4hPa WNW 2.3mph /  3.7km/h 11mph /  17.7km/h 62% 0.00in /  0mm 9 W/m2
16:54 36.9 °F /  2.7 °C 25.5 °F /  -3.6 °C 29.96in /  1014.4hPa WNW 2.5mph /  4km/h 11mph /  17.7km/h 62.8% 0.00in /  0mm 7 W/m2
16:59 36.7 °F /  2.6 °C 25.7 °F /  -3.5 °C 29.97in /  1014.8hPa NW 3.7mph /  6km/h 11mph /  17.7km/h 63.8% 0.00in /  0mm 0 W/m2
17:04 36.5 °F /  2.5 °C 25.2 °F /  -3.8 °C 29.97in /  1014.8hPa NW 4.3mph /  6.9km/h 15mph /  24.1km/h 63.3% 0.00in /  0mm 0 W/m2
17:09 36.3 °F /  2.4 °C 25 °F /  -3.9 °C 29.98in /  1015.1hPa WNW 2mph /  3.2km/h 15mph /  24.1km/h 63.2% 0.00in /  0mm 0 W/m2
17:14 36.1 °F /  2.3 °C 24.9 °F /  -3.9 °C 29.98in /  1015.1hPa NW 2.8mph /  4.5km/h 15mph /  24.1km/h 63.3% 0.00in /  0mm 0 W/m2
17:19 35.9 °F /  2.2 °C 24.7 °F /  -4.1 °C 29.98in /  1015.1hPa NW 2.3mph /  3.7km/h 15mph /  24.1km/h 63.4% 0.00in /  0mm 0 W/m2
17:24 35.8 °F /  2.1 °C 24.8 °F /  -4 °C 29.99in /  1015.5hPa NNW 1.2mph /  1.9km/h 15mph /  24.1km/h 64% 0.00in /  0mm 0 W/m2
17:29 35.5 °F /  1.9 °C 24.2 °F /  -4.3 °C 29.99in /  1015.5hPa NW 2.3mph /  3.7km/h 15mph /  24.1km/h 63% 0.00in /  0mm 0 W/m2
17:34 35.2 °F /  1.8 °C 23.9 °F /  -4.5 °C 30.00in /  1015.8hPa WNW 2.1mph /  3.4km/h 15mph /  24.1km/h 63% 0.00in /  0mm 0 W/m2
17:39 35 °F /  1.7 °C 23.6 °F /  -4.7 °C 30.00in /  1015.8hPa NW 2.4mph /  3.9km/h 11mph /  17.7km/h 62.8% 0.00in /  0mm 0 W/m2
17:44 34.7 °F /  1.5 °C 23 °F /  -5 °C 30.00in /  1015.8hPa WNW 1.1mph /  1.8km/h 11mph /  17.7km/h 62% 0.00in /  0mm 0 W/m2
17:49 34.4 °F /  1.3 °C 22.7 °F /  -5.2 °C 30.01in /  1016.1hPa WNW 1.5mph /  2.4km/h 11mph /  17.7km/h 61.8% 0.00in /  0mm 0 W/m2
17:54 34.2 °F /  1.2 °C 22.1 °F /  -5.5 °C 30.01in /  1016.1hPa WNW 2.7mph /  4.3km/h 11mph /  17.7km/h 61% 0.00in /  0mm 0 W/m2
17:59 34 °F /  1.1 °C 21.8 °F /  -5.7 °C 30.01in /  1016.1hPa NW 1.7mph /  2.7km/h 11mph /  17.7km/h 60.7% 0.00in /  0mm 0 W/m2
18:04 33.8 °F /  1 °C 21.3 °F /  -5.9 °C 30.01in /  1016.1hPa WNW 2.5mph /  4km/h 12mph /  19.3km/h 59.7% 0.00in /  0mm 0 W/m2
18:09 33.7 °F /  0.9 °C 21.2 °F /  -6 °C 30.01in /  1016.1hPa WNW 1.4mph /  2.3km/h 12mph /  19.3km/h 59.8% 0.00in /  0mm 0 W/m2
18:14 33.5 °F /  0.8 °C 20.8 °F /  -6.2 °C 30.02in /  1016.5hPa WNW 0.6mph /  1km/h 12mph /  19.3km/h 59.1% 0.00in /  0mm 0 W/m2
18:19 33.4 °F /  0.8 °C 20.6 °F /  -6.3 °C 30.02in /  1016.5hPa WNW 0.1mph /  0.2km/h 12mph /  19.3km/h 59% 0.00in /  0mm 0 W/m2
18:24 33.3 °F /  0.7 °C 20.5 °F /  -6.4 °C 30.02in /  1016.5hPa WNW 0.5mph /  0.8km/h 12mph /  19.3km/h 59% 0.00in /  0mm 0 W/m2
18:29 33.1 °F /  0.6 °C 20.3 °F /  -6.5 °C 30.02in /  1016.5hPa NW 0.7mph /  1.1km/h 12mph /  19.3km/h 58.8% 0.00in /  0mm 0 W/m2
18:34 32.9 °F /  0.5 °C 19.8 °F /  -6.8 °C 30.02in /  1016.5hPa NNW 0.1mph /  0.2km/h 12mph /  19.3km/h 58% 0.00in /  0mm 0 W/m2
18:39 32.8 °F /  0.4 °C 19.6 °F /  -6.9 °C 30.03in /  1016.8hPa NNW 0.8mph /  1.3km/h 5mph /  8km/h 58% 0.00in /  0mm 0 W/m2
18:44 32.6 °F /  0.3 °C 19.3 °F /  -7.1 °C 30.03in /  1016.8hPa NNW 0.2mph /  0.3km/h 5mph /  8km/h 57.6% 0.00in /  0mm 0 W/m2
18:49 32.5 °F /  0.3 °C 18.9 °F /  -7.3 °C 30.03in /  1016.8hPa NNW 1.3mph /  2.1km/h 5mph /  8km/h 56.9% 0.00in /  0mm 0 W/m2
18:54 32.4 °F /  0.2 °C 18.5 °F /  -7.5 °C 30.04in /  1017.2hPa NW 0.8mph /  1.3km/h 5mph /  8km/h 56% 0.00in /  0mm 0 W/m2
18:59 32.3 °F /  0.2 °C 18.4 °F /  -7.6 °C 30.04in /  1017.2hPa NW 0.8mph /  1.3km/h 6mph /  9.7km/h 56% 0.00in /  0mm 0 W/m2
19:04 32.2 °F /  0.1 °C 18.3 °F /  -7.6 °C 30.04in /  1017.2hPa NW 1.2mph /  1.9km/h 6mph /  9.7km/h 56% 0.00in /  0mm 0 W/m2
19:09 32.1 °F /  0.1 °C 18.1 °F /  -7.7 °C 30.04in /  1017.2hPa NW 1.1mph /  1.8km/h 4mph /  6.4km/h 55.9% 0.00in /  0mm 0 W/m2
19:13 32 °F /  0 °C 17.7 °F /  -7.9 °C 30.05in /  1017.5hPa NW 1.1mph /  1.8km/h 4mph /  6.4km/h 55% 0.00in /  0mm 0 W/m2
Hartford County Weather
Compliments of Weather Underground - 2 mb